sensor_id;sensor_type;location;lat;lon;timestamp;P1;durP1;ratioP1;P2;durP2;ratioP2
19653;SDS011;9975;48.046;7.804;2022-08-03T02:04:12;2.60;;;2.10;;
19653;SDS011;9975;48.046;7.804;2022-08-03T02:06:40;3.60;;;1.73;;
19653;SDS011;9975;48.046;7.804;2022-08-03T02:09:09;2.50;;;1.53;;
19653;SDS011;9975;48.046;7.804;2022-08-03T02:11:36;2.80;;;1.97;;
19653;SDS011;9975;48.046;7.804;2022-08-03T02:14:03;2.40;;;1.43;;
19653;SDS011;9975;48.046;7.804;2022-08-03T02:16:30;1.70;;;1.60;;
19653;SDS011;9975;48.046;7.804;2022-08-03T02:18:58;2.13;;;1.50;;
19653;SDS011;9975;48.046;7.804;2022-08-03T02:21:28;1.57;;;1.47;;
19653;SDS011;9975;48.046;7.804;2022-08-03T02:23:56;3.20;;;1.90;;
19653;SDS011;9975;48.046;7.804;2022-08-03T02:26:22;2.07;;;1.73;;
19653;SDS011;9975;48.046;7.804;2022-08-03T02:28:51;2.23;;;1.73;;
19653;SDS011;9975;48.046;7.804;2022-08-03T02:31:22;5.57;;;1.87;;
19653;SDS011;9975;48.046;7.804;2022-08-03T02:33:52;3.27;;;1.63;;
19653;SDS011;9975;48.046;7.804;2022-08-03T02:36:23;7.00;;;2.30;;
19653;SDS011;9975;48.046;7.804;2022-08-03T02:38:52;2.60;;;1.50;;
19653;SDS011;9975;48.046;7.804;2022-08-03T02:41:27;2.90;;;1.80;;
19653;SDS011;9975;48.046;7.804;2022-08-03T02:43:56;2.60;;;1.80;;
19653;SDS011;9975;48.046;7.804;2022-08-03T02:46:27;4.57;;;2.00;;
19653;SDS011;9975;48.046;7.804;2022-08-03T02:48:56;3.80;;;2.83;;
19653;SDS011;9975;48.046;7.804;2022-08-03T02:51:25;3.17;;;1.90;;
19653;SDS011;9975;48.046;7.804;2022-08-03T02:53:53;2.07;;;1.87;;
19653;SDS011;9975;48.046;7.804;2022-08-03T02:56:22;3.97;;;2.20;;
19653;SDS011;9975;48.046;7.804;2022-08-03T02:58:49;3.07;;;1.80;;
19653;SDS011;9975;48.046;7.804;2022-08-03T03:01:18;1.73;;;1.57;;
19653;SDS011;9975;48.046;7.804;2022-08-03T03:03:46;4.60;;;1.83;;
19653;SDS011;9975;48.046;7.804;2022-08-03T03:06:14;3.83;;;2.57;;
19653;SDS011;9975;48.046;7.804;2022-08-03T03:08:41;2.93;;;2.20;;
19653;SDS011;9975;48.046;7.804;2022-08-03T03:11:07;3.53;;;1.63;;
19653;SDS011;9975;48.046;7.804;2022-08-03T03:13:35;6.80;;;1.67;;
19653;SDS011;9975;48.046;7.804;2022-08-03T03:16:02;2.70;;;1.60;;
19653;SDS011;9975;48.046;7.804;2022-08-03T03:18:30;3.83;;;2.00;;
19653;SDS011;9975;48.046;7.804;2022-08-03T03:20:58;3.00;;;1.87;;
19653;SDS011;9975;48.046;7.804;2022-08-03T03:23:25;4.07;;;2.23;;
19653;SDS011;9975;48.046;7.804;2022-08-03T03:25:53;4.40;;;2.30;;
19653;SDS011;9975;48.046;7.804;2022-08-03T03:28:20;2.47;;;2.27;;
19653;SDS011;9975;48.046;7.804;2022-08-03T03:30:47;3.03;;;1.50;;
19653;SDS011;9975;48.046;7.804;2022-08-03T03:33:13;2.10;;;1.67;;
19653;SDS011;9975;48.046;7.804;2022-08-03T03:35:40;1.73;;;1.63;;
19653;SDS011;9975;48.046;7.804;2022-08-03T03:38:08;2.60;;;2.00;;
19653;SDS011;9975;48.046;7.804;2022-08-03T03:40:34;5.33;;;2.00;;
19653;SDS011;9975;48.046;7.804;2022-08-03T03:43:01;5.47;;;2.03;;
19653;SDS011;9975;48.046;7.804;2022-08-03T03:45:27;5.53;;;2.70;;
19653;SDS011;9975;48.046;7.804;2022-08-03T03:47:55;2.33;;;1.80;;
19653;SDS011;9975;48.046;7.804;2022-08-03T03:50:20;4.67;;;2.03;;
19653;SDS011;9975;48.046;7.804;2022-08-03T03:52:47;1.80;;;1.40;;
19653;SDS011;9975;48.046;7.804;2022-08-03T03:55:17;10.27;;;2.30;;
19653;SDS011;9975;48.046;7.804;2022-08-03T03:57:43;2.80;;;1.90;;
19653;SDS011;9975;48.046;7.804;2022-08-03T04:00:10;2.90;;;1.67;;
19653;SDS011;9975;48.046;7.804;2022-08-03T04:02:40;3.37;;;1.80;;
19653;SDS011;9975;48.046;7.804;2022-08-03T04:05:08;2.57;;;1.83;;
19653;SDS011;9975;48.046;7.804;2022-08-03T04:08:08;2.43;;;1.90;;
19653;SDS011;9975;48.046;7.804;2022-08-03T04:13:57;2.63;;;1.93;;
19653;SDS011;9975;48.046;7.804;2022-08-03T04:16:39;2.10;;;1.90;;
19653;SDS011;9975;48.046;7.804;2022-08-03T04:19:29;2.10;;;1.90;;
19653;SDS011;9975;48.046;7.804;2022-08-03T04:22:00;2.50;;;1.90;;
19653;SDS011;9975;48.046;7.804;2022-08-03T04:24:36;4.90;;;2.23;;
19653;SDS011;9975;48.046;7.804;2022-08-03T04:27:19;3.73;;;2.03;;
19653;SDS011;9975;48.046;7.804;2022-08-03T04:29:50;2.03;;;1.83;;
19653;SDS011;9975;48.046;7.804;2022-08-03T04:32:17;1.73;;;1.63;;
19653;SDS011;9975;48.046;7.804;2022-08-03T04:34:45;2.10;;;1.67;;
19653;SDS011;9975;48.046;7.804;2022-08-03T04:37:11;4.00;;;1.83;;
19653;SDS011;9975;48.046;7.804;2022-08-03T04:39:42;2.33;;;1.73;;
19653;SDS011;9975;48.046;7.804;2022-08-03T04:42:09;3.07;;;1.90;;
19653;SDS011;9975;48.046;7.804;2022-08-03T04:44:37;4.97;;;2.80;;
19653;SDS011;9975;48.046;7.804;2022-08-03T04:47:05;4.77;;;2.20;;
19653;SDS011;9975;48.046;7.804;2022-08-03T04:49:31;4.97;;;2.83;;
19653;SDS011;9975;48.046;7.804;2022-08-03T04:51:58;2.27;;;2.07;;
19653;SDS011;9975;48.046;7.804;2022-08-03T04:54:25;5.83;;;1.90;;
19653;SDS011;9975;48.046;7.804;2022-08-03T04:56:50;4.60;;;3.27;;
19653;SDS011;9975;48.046;7.804;2022-08-03T04:59:16;3.03;;;2.33;;
19653;SDS011;9975;48.046;7.804;2022-08-03T05:01:41;3.87;;;1.97;;
19653;SDS011;9975;48.046;7.804;2022-08-03T05:04:08;2.97;;;1.77;;
19653;SDS011;9975;48.046;7.804;2022-08-03T05:06:33;3.47;;;1.80;;
19653;SDS011;9975;48.046;7.804;2022-08-03T05:08:59;2.80;;;2.10;;
19653;SDS011;9975;48.046;7.804;2022-08-03T05:11:25;3.07;;;1.90;;
19653;SDS011;9975;48.046;7.804;2022-08-03T05:13:50;3.93;;;2.83;;
19653;SDS011;9975;48.046;7.804;2022-08-03T05:16:16;5.30;;;2.63;;
19653;SDS011;9975;48.046;7.804;2022-08-03T05:18:42;4.77;;;2.40;;
19653;SDS011;9975;48.046;7.804;2022-08-03T05:21:08;4.00;;;2.20;;
19653;SDS011;9975;48.046;7.804;2022-08-03T05:23:34;3.50;;;2.70;;
19653;SDS011;9975;48.046;7.804;2022-08-03T05:26:01;4.27;;;2.33;;
19653;SDS011;9975;48.046;7.804;2022-08-03T05:28:27;4.03;;;2.80;;
19653;SDS011;9975;48.046;7.804;2022-08-03T05:30:53;3.80;;;2.33;;
19653;SDS011;9975;48.046;7.804;2022-08-03T05:33:19;4.70;;;2.40;;
19653;SDS011;9975;48.046;7.804;2022-08-03T05:35:44;4.37;;;2.90;;
19653;SDS011;9975;48.046;7.804;2022-08-03T05:38:10;3.43;;;2.50;;
19653;SDS011;9975;48.046;7.804;2022-08-03T05:40:36;3.47;;;2.87;;
19653;SDS011;9975;48.046;7.804;2022-08-03T05:43:01;3.57;;;2.50;;
19653;SDS011;9975;48.046;7.804;2022-08-03T05:45:27;3.70;;;2.50;;
19653;SDS011;9975;48.046;7.804;2022-08-03T05:47:52;3.20;;;2.77;;
19653;SDS011;9975;48.046;7.804;2022-08-03T05:50:18;2.87;;;2.07;;
19653;SDS011;9975;48.046;7.804;2022-08-03T05:52:44;5.53;;;2.43;;
19653;SDS011;9975;48.046;7.804;2022-08-03T05:55:10;3.87;;;2.50;;
19653;SDS011;9975;48.046;7.804;2022-08-03T05:57:37;4.27;;;2.80;;
19653;SDS011;9975;48.046;7.804;2022-08-03T06:00:04;2.27;;;2.07;;
19653;SDS011;9975;48.046;7.804;2022-08-03T06:02:34;2.73;;;2.33;;
19653;SDS011;9975;48.046;7.804;2022-08-03T06:05:00;2.20;;;2.00;;
19653;SDS011;9975;48.046;7.804;2022-08-03T06:07:26;4.83;;;3.00;;
19653;SDS011;9975;48.046;7.804;2022-08-03T06:09:52;4.70;;;2.40;;
19653;SDS011;9975;48.046;7.804;2022-08-03T06:12:17;6.50;;;2.97;;
19653;SDS011;9975;48.046;7.804;2022-08-03T06:14:43;3.60;;;2.30;;
19653;SDS011;9975;48.046;7.804;2022-08-03T06:17:09;3.87;;;2.93;;
19653;SDS011;9975;48.046;7.804;2022-08-03T06:19:36;6.33;;;2.80;;
19653;SDS011;9975;48.046;7.804;2022-08-03T06:22:02;8.60;;;2.03;;
19653;SDS011;9975;48.046;7.804;2022-08-03T06:24:28;4.07;;;2.10;;
19653;SDS011;9975;48.046;7.804;2022-08-03T06:26:53;2.70;;;1.70;;
19653;SDS011;9975;48.046;7.804;2022-08-03T06:29:19;1.60;;;1.50;;
19653;SDS011;9975;48.046;7.804;2022-08-03T06:31:45;2.17;;;1.83;;
19653;SDS011;9975;48.046;7.804;2022-08-03T06:34:10;2.07;;;1.87;;
19653;SDS011;9975;48.046;7.804;2022-08-03T06:36:36;2.70;;;2.00;;
19653;SDS011;9975;48.046;7.804;2022-08-03T06:39:02;2.60;;;1.83;;
19653;SDS011;9975;48.046;7.804;2022-08-03T06:41:28;2.67;;;1.63;;
19653;SDS011;9975;48.046;7.804;2022-08-03T06:43:54;3.17;;;1.77;;
19653;SDS011;9975;48.046;7.804;2022-08-03T06:46:20;2.60;;;2.37;;
19653;SDS011;9975;48.046;7.804;2022-08-03T06:48:46;2.73;;;2.13;;
19653;SDS011;9975;48.046;7.804;2022-08-03T06:51:12;3.77;;;2.53;;
19653;SDS011;9975;48.046;7.804;2022-08-03T06:53:38;3.03;;;2.00;;
19653;SDS011;9975;48.046;7.804;2022-08-03T06:56:04;3.80;;;2.40;;
19653;SDS011;9975;48.046;7.804;2022-08-03T06:58:31;3.60;;;1.90;;
19653;SDS011;9975;48.046;7.804;2022-08-03T07:00:56;2.53;;;2.33;;
19653;SDS011;9975;48.046;7.804;2022-08-03T07:03:22;4.30;;;2.50;;
19653;SDS011;9975;48.046;7.804;2022-08-03T07:05:48;2.30;;;2.10;;
19653;SDS011;9975;48.046;7.804;2022-08-03T07:08:15;2.00;;;1.60;;
19653;SDS011;9975;48.046;7.804;2022-08-03T07:10:41;4.13;;;2.30;;
19653;SDS011;9975;48.046;7.804;2022-08-03T07:13:07;4.13;;;2.13;;
19653;SDS011;9975;48.046;7.804;2022-08-03T07:15:33;5.60;;;2.20;;
19653;SDS011;9975;48.046;7.804;2022-08-03T07:17:59;3.13;;;2.40;;
19653;SDS011;9975;48.046;7.804;2022-08-03T07:20:24;2.37;;;2.20;;
19653;SDS011;9975;48.046;7.804;2022-08-03T07:22:50;2.27;;;2.10;;
19653;SDS011;9975;48.046;7.804;2022-08-03T07:25:15;4.30;;;2.43;;
19653;SDS011;9975;48.046;7.804;2022-08-03T07:27:45;3.07;;;2.50;;
19653;SDS011;9975;48.046;7.804;2022-08-03T07:30:12;2.17;;;1.97;;
19653;SDS011;9975;48.046;7.804;2022-08-03T07:32:38;2.43;;;2.23;;
19653;SDS011;9975;48.046;7.804;2022-08-03T07:35:04;4.20;;;2.93;;
19653;SDS011;9975;48.046;7.804;2022-08-03T07:37:31;5.57;;;3.00;;
19653;SDS011;9975;48.046;7.804;2022-08-03T07:39:57;2.70;;;2.50;;
19653;SDS011;9975;48.046;7.804;2022-08-03T07:42:25;3.07;;;2.77;;
19653;SDS011;9975;48.046;7.804;2022-08-03T07:44:54;2.67;;;2.43;;
19653;SDS011;9975;48.046;7.804;2022-08-03T07:47:23;3.90;;;2.63;;
19653;SDS011;9975;48.046;7.804;2022-08-03T07:49:51;3.13;;;2.83;;
19653;SDS011;9975;48.046;7.804;2022-08-03T07:52:17;2.40;;;2.20;;
19653;SDS011;9975;48.046;7.804;2022-08-03T07:55:01;2.03;;;1.93;;
19653;SDS011;9975;48.046;7.804;2022-08-03T07:57:27;2.63;;;2.43;;
19653;SDS011;9975;48.046;7.804;2022-08-03T07:59:53;2.90;;;2.37;;
19653;SDS011;9975;48.046;7.804;2022-08-03T08:02:19;4.10;;;2.93;;
19653;SDS011;9975;48.046;7.804;2022-08-03T08:04:44;3.77;;;2.47;;
19653;SDS011;9975;48.046;7.804;2022-08-03T08:07:10;3.03;;;2.60;;
19653;SDS011;9975;48.046;7.804;2022-08-03T08:09:35;2.80;;;2.57;;
19653;SDS011;9975;48.046;7.804;2022-08-03T08:12:01;2.70;;;2.50;;
19653;SDS011;9975;48.046;7.804;2022-08-03T08:14:27;2.70;;;2.50;;
19653;SDS011;9975;48.046;7.804;2022-08-03T08:16:53;2.77;;;2.27;;
19653;SDS011;9975;48.046;7.804;2022-08-03T08:19:19;3.03;;;2.73;;
19653;SDS011;9975;48.046;7.804;2022-08-03T08:21:45;3.17;;;2.97;;
19653;SDS011;9975;48.046;7.804;2022-08-03T08:24:10;4.30;;;2.90;;
19653;SDS011;9975;48.046;7.804;2022-08-03T08:26:36;2.70;;;2.50;;
19653;SDS011;9975;48.046;7.804;2022-08-03T08:29:02;3.47;;;2.80;;
19653;SDS011;9975;48.046;7.804;2022-08-03T08:31:28;2.47;;;2.27;;
19653;SDS011;9975;48.046;7.804;2022-08-03T08:33:53;2.90;;;2.70;;
19653;SDS011;9975;48.046;7.804;2022-08-03T08:36:19;2.90;;;2.70;;
19653;SDS011;9975;48.046;7.804;2022-08-03T08:38:44;2.63;;;2.40;;
19653;SDS011;9975;48.046;7.804;2022-08-03T08:41:11;3.40;;;2.40;;
19653;SDS011;9975;48.046;7.804;2022-08-03T08:43:38;2.50;;;2.30;;
19653;SDS011;9975;48.046;7.804;2022-08-03T08:46:04;2.83;;;2.60;;
19653;SDS011;9975;48.046;7.804;2022-08-03T08:48:32;3.93;;;3.10;;
19653;SDS011;9975;48.046;7.804;2022-08-03T08:51:00;3.13;;;2.80;;
19653;SDS011;9975;48.046;7.804;2022-08-03T08:53:27;2.90;;;2.70;;
19653;SDS011;9975;48.046;7.804;2022-08-03T08:55:54;3.00;;;2.80;;
19653;SDS011;9975;48.046;7.804;2022-08-03T08:58:32;4.50;;;3.23;;
19653;SDS011;9975;48.046;7.804;2022-08-03T09:01:01;3.37;;;2.53;;
19653;SDS011;9975;48.046;7.804;2022-08-03T09:03:28;2.90;;;2.50;;
19653;SDS011;9975;48.046;7.804;2022-08-03T09:05:53;5.37;;;2.60;;
19653;SDS011;9975;48.046;7.804;2022-08-03T09:08:20;3.17;;;2.87;;
19653;SDS011;9975;48.046;7.804;2022-08-03T09:10:47;2.80;;;2.37;;
19653;SDS011;9975;48.046;7.804;2022-08-03T09:13:12;3.07;;;2.83;;
19653;SDS011;9975;48.046;7.804;2022-08-03T09:15:38;3.50;;;3.30;;
19653;SDS011;9975;48.046;7.804;2022-08-03T09:18:04;4.13;;;2.83;;
19653;SDS011;9975;48.046;7.804;2022-08-03T09:20:33;3.37;;;3.03;;
19653;SDS011;9975;48.046;7.804;2022-08-03T09:23:04;3.60;;;2.43;;
19653;SDS011;9975;48.046;7.804;2022-08-03T09:25:39;3.40;;;3.20;;
19653;SDS011;9975;48.046;7.804;2022-08-03T09:28:07;2.73;;;2.53;;
19653;SDS011;9975;48.046;7.804;2022-08-03T09:30:41;2.73;;;2.53;;
19653;SDS011;9975;48.046;7.804;2022-08-03T09:33:09;4.17;;;3.17;;
19653;SDS011;9975;48.046;7.804;2022-08-03T09:35:42;2.90;;;2.70;;
19653;SDS011;9975;48.046;7.804;2022-08-03T09:40:48;4.10;;;2.47;;
19653;SDS011;9975;48.046;7.804;2022-08-03T09:43:14;3.20;;;3.00;;
19653;SDS011;9975;48.046;7.804;2022-08-03T09:45:41;3.33;;;2.77;;
19653;SDS011;9975;48.046;7.804;2022-08-03T09:48:24;3.50;;;3.20;;
19653;SDS011;9975;48.046;7.804;2022-08-03T09:51:06;4.80;;;3.00;;
19653;SDS011;9975;48.046;7.804;2022-08-03T09:53:40;3.87;;;2.87;;
19653;SDS011;9975;48.046;7.804;2022-08-03T09:56:09;2.60;;;2.40;;
19653;SDS011;9975;48.046;7.804;2022-08-03T09:58:42;2.80;;;2.60;;
19653;SDS011;9975;48.046;7.804;2022-08-03T10:01:10;3.93;;;2.83;;
19653;SDS011;9975;48.046;7.804;2022-08-03T10:03:39;4.07;;;2.90;;
19653;SDS011;9975;48.046;7.804;2022-08-03T10:06:17;2.80;;;2.60;;
19653;SDS011;9975;48.046;7.804;2022-08-03T10:08:44;3.40;;;2.57;;
19653;SDS011;9975;48.046;7.804;2022-08-03T10:11:10;2.60;;;2.37;;
19653;SDS011;9975;48.046;7.804;2022-08-03T10:13:36;3.67;;;2.73;;
19653;SDS011;9975;48.046;7.804;2022-08-03T10:16:03;2.90;;;2.70;;
19653;SDS011;9975;48.046;7.804;2022-08-03T10:18:30;3.63;;;2.63;;
19653;SDS011;9975;48.046;7.804;2022-08-03T10:21:02;3.20;;;2.57;;
19653;SDS011;9975;48.046;7.804;2022-08-03T10:23:33;3.13;;;2.57;;
19653;SDS011;9975;48.046;7.804;2022-08-03T10:26:01;2.63;;;2.40;;
19653;SDS011;9975;48.046;7.804;2022-08-03T10:28:32;2.80;;;2.60;;
19653;SDS011;9975;48.046;7.804;2022-08-03T10:31:00;5.43;;;2.40;;
19653;SDS011;9975;48.046;7.804;2022-08-03T10:33:30;8.13;;;2.90;;
19653;SDS011;9975;48.046;7.804;2022-08-03T10:35:58;2.40;;;2.20;;
19653;SDS011;9975;48.046;7.804;2022-08-03T10:38:31;2.80;;;2.60;;
19653;SDS011;9975;48.046;7.804;2022-08-03T10:41:01;4.90;;;1.93;;
19653;SDS011;9975;48.046;7.804;2022-08-03T10:43:32;2.60;;;2.40;;
19653;SDS011;9975;48.046;7.804;2022-08-03T10:46:19;2.73;;;2.53;;
19653;SDS011;9975;48.046;7.804;2022-08-03T10:48:45;2.20;;;2.00;;
19653;SDS011;9975;48.046;7.804;2022-08-03T10:51:14;2.43;;;2.33;;
19653;SDS011;9975;48.046;7.804;2022-08-03T10:53:40;2.63;;;2.43;;
19653;SDS011;9975;48.046;7.804;2022-08-03T11:02:11;2.70;;;2.50;;
19653;SDS011;9975;48.046;7.804;2022-08-03T11:04:38;3.47;;;2.43;;
19653;SDS011;9975;48.046;7.804;2022-08-03T11:09:49;5.13;;;2.83;;
19653;SDS011;9975;48.046;7.804;2022-08-03T11:14:56;3.83;;;2.50;;
19653;SDS011;9975;48.046;7.804;2022-08-03T11:17:26;3.00;;;2.80;;
19653;SDS011;9975;48.046;7.804;2022-08-03T11:19:52;8.53;;;3.10;;
19653;SDS011;9975;48.046;7.804;2022-08-03T11:22:19;2.70;;;2.50;;
19653;SDS011;9975;48.046;7.804;2022-08-03T11:27:15;3.23;;;2.97;;
19653;SDS011;9975;48.046;7.804;2022-08-03T11:37:33;5.00;;;3.27;;
19653;SDS011;9975;48.046;7.804;2022-08-03T11:39:59;3.50;;;3.20;;
19653;SDS011;9975;48.046;7.804;2022-08-03T11:45:03;4.87;;;2.57;;
19653;SDS011;9975;48.046;7.804;2022-08-03T11:47:34;2.20;;;2.10;;
19653;SDS011;9975;48.046;7.804;2022-08-03T11:50:01;4.33;;;2.83;;
19653;SDS011;9975;48.046;7.804;2022-08-03T11:52:32;2.87;;;2.67;;
19653;SDS011;9975;48.046;7.804;2022-08-03T11:54:59;3.20;;;3.00;;
19653;SDS011;9975;48.046;7.804;2022-08-03T11:57:30;2.30;;;2.10;;
19653;SDS011;9975;48.046;7.804;2022-08-03T11:59:57;2.40;;;2.20;;
19653;SDS011;9975;48.046;7.804;2022-08-03T12:02:23;2.60;;;2.30;;
19653;SDS011;9975;48.046;7.804;2022-08-03T12:04:52;3.20;;;2.90;;
19653;SDS011;9975;48.046;7.804;2022-08-03T12:07:24;2.70;;;2.50;;
19653;SDS011;9975;48.046;7.804;2022-08-03T12:10:12;3.50;;;2.93;;
19653;SDS011;9975;48.046;7.804;2022-08-03T12:12:39;2.60;;;2.40;;
19653;SDS011;9975;48.046;7.804;2022-08-03T12:15:06;2.93;;;2.73;;
19653;SDS011;9975;48.046;7.804;2022-08-03T12:17:33;2.60;;;2.40;;
19653;SDS011;9975;48.046;7.804;2022-08-03T12:20:04;2.53;;;2.33;;
19653;SDS011;9975;48.046;7.804;2022-08-03T12:22:32;2.70;;;2.50;;
19653;SDS011;9975;48.046;7.804;2022-08-03T12:24:59;2.63;;;2.43;;
19653;SDS011;9975;48.046;7.804;2022-08-03T12:27:24;3.53;;;3.20;;
19653;SDS011;9975;48.046;7.804;2022-08-03T12:29:53;4.97;;;2.70;;
19653;SDS011;9975;48.046;7.804;2022-08-03T12:32:20;4.37;;;2.70;;
19653;SDS011;9975;48.046;7.804;2022-08-03T12:34:46;2.30;;;2.20;;
19653;SDS011;9975;48.046;7.804;2022-08-03T12:37:13;3.00;;;2.70;;
19653;SDS011;9975;48.046;7.804;2022-08-03T12:39:53;3.27;;;2.97;;
19653;SDS011;9975;48.046;7.804;2022-08-03T12:42:33;2.93;;;2.73;;
19653;SDS011;9975;48.046;7.804;2022-08-03T12:45:16;5.00;;;2.50;;
19653;SDS011;9975;48.046;7.804;2022-08-03T12:47:56;3.23;;;2.63;;
19653;SDS011;9975;48.046;7.804;2022-08-03T12:50:22;2.83;;;2.63;;
19653;SDS011;9975;48.046;7.804;2022-08-03T12:52:58;2.53;;;2.33;;
19653;SDS011;9975;48.046;7.804;2022-08-03T12:55:25;2.70;;;2.50;;
19653;SDS011;9975;48.046;7.804;2022-08-03T12:58:03;3.40;;;3.00;;
19653;SDS011;9975;48.046;7.804;2022-08-03T13:00:31;4.03;;;2.53;;
19653;SDS011;9975;48.046;7.804;2022-08-03T13:03:01;2.93;;;2.73;;
19653;SDS011;9975;48.046;7.804;2022-08-03T13:05:28;2.43;;;2.23;;
19653;SDS011;9975;48.046;7.804;2022-08-03T13:07:54;2.47;;;2.30;;
19653;SDS011;9975;48.046;7.804;2022-08-03T13:10:27;3.00;;;2.70;;
19653;SDS011;9975;48.046;7.804;2022-08-03T13:12:55;2.60;;;2.40;;
19653;SDS011;9975;48.046;7.804;2022-08-03T13:15:23;3.00;;;2.37;;
19653;SDS011;9975;48.046;7.804;2022-08-03T13:17:52;4.30;;;1.90;;
19653;SDS011;9975;48.046;7.804;2022-08-03T13:20:18;2.20;;;2.00;;
19653;SDS011;9975;48.046;7.804;2022-08-03T13:22:45;2.10;;;2.00;;
19653;SDS011;9975;48.046;7.804;2022-08-03T13:25:12;2.43;;;2.30;;
19653;SDS011;9975;48.046;7.804;2022-08-03T13:27:38;2.43;;;2.30;;
19653;SDS011;9975;48.046;7.804;2022-08-03T13:30:03;4.90;;;2.17;;
19653;SDS011;9975;48.046;7.804;2022-08-03T13:32:31;2.10;;;2.00;;
19653;SDS011;9975;48.046;7.804;2022-08-03T13:34:57;2.03;;;1.93;;
19653;SDS011;9975;48.046;7.804;2022-08-03T13:37:23;1.43;;;1.33;;
19653;SDS011;9975;48.046;7.804;2022-08-03T13:39:49;2.17;;;2.00;;
19653;SDS011;9975;48.046;7.804;2022-08-03T13:42:14;2.80;;;1.57;;
19653;SDS011;9975;48.046;7.804;2022-08-03T13:44:40;2.40;;;2.20;;
19653;SDS011;9975;48.046;7.804;2022-08-03T13:47:05;1.80;;;1.70;;
19653;SDS011;9975;48.046;7.804;2022-08-03T13:49:31;2.63;;;2.23;;
19653;SDS011;9975;48.046;7.804;2022-08-03T13:51:57;2.80;;;1.77;;
19653;SDS011;9975;48.046;7.804;2022-08-03T13:54:23;2.07;;;1.87;;
19653;SDS011;9975;48.046;7.804;2022-08-03T13:56:49;1.30;;;1.30;;
19653;SDS011;9975;48.046;7.804;2022-08-03T13:59:23;1.47;;;1.37;;
19653;SDS011;9975;48.046;7.804;2022-08-03T14:01:50;1.63;;;1.53;;
19653;SDS011;9975;48.046;7.804;2022-08-03T14:04:16;1.83;;;1.73;;
19653;SDS011;9975;48.046;7.804;2022-08-03T14:06:42;1.70;;;1.60;;
19653;SDS011;9975;48.046;7.804;2022-08-03T14:09:11;1.40;;;1.30;;
19653;SDS011;9975;48.046;7.804;2022-08-03T14:11:38;1.53;;;1.43;;
19653;SDS011;9975;48.046;7.804;2022-08-03T14:14:06;1.50;;;1.40;;
19653;SDS011;9975;48.046;7.804;2022-08-03T14:16:32;1.60;;;1.50;;
19653;SDS011;9975;48.046;7.804;2022-08-03T14:18:57;1.90;;;1.80;;
19653;SDS011;9975;48.046;7.804;2022-08-03T14:21:23;2.20;;;1.87;;
19653;SDS011;9975;48.046;7.804;2022-08-03T14:23:48;4.73;;;1.20;;
19653;SDS011;9975;48.046;7.804;2022-08-03T14:26:14;1.77;;;1.67;;
19653;SDS011;9975;48.046;7.804;2022-08-03T14:28:42;1.53;;;1.43;;
19653;SDS011;9975;48.046;7.804;2022-08-03T14:31:08;1.43;;;1.33;;
19653;SDS011;9975;48.046;7.804;2022-08-03T14:33:33;2.37;;;1.67;;
19653;SDS011;9975;48.046;7.804;2022-08-03T14:35:59;1.30;;;1.20;;
19653;SDS011;9975;48.046;7.804;2022-08-03T14:38:25;2.60;;;2.03;;
19653;SDS011;9975;48.046;7.804;2022-08-03T14:40:50;1.60;;;1.50;;
19653;SDS011;9975;48.046;7.804;2022-08-03T14:43:17;1.70;;;1.60;;
19653;SDS011;9975;48.046;7.804;2022-08-03T14:45:45;2.00;;;1.80;;
19653;SDS011;9975;48.046;7.804;2022-08-03T14:48:11;2.23;;;2.03;;
19653;SDS011;9975;48.046;7.804;2022-08-03T14:50:37;1.80;;;1.70;;
19653;SDS011;9975;48.046;7.804;2022-08-03T14:53:03;2.30;;;2.10;;
19653;SDS011;9975;48.046;7.804;2022-08-03T14:55:29;2.10;;;2.00;;
19653;SDS011;9975;48.046;7.804;2022-08-03T14:57:54;2.40;;;2.23;;
19653;SDS011;9975;48.046;7.804;2022-08-03T15:00:21;2.47;;;2.27;;
19653;SDS011;9975;48.046;7.804;2022-08-03T15:02:47;2.20;;;2.10;;
19653;SDS011;9975;48.046;7.804;2022-08-03T15:05:12;4.70;;;2.50;;
19653;SDS011;9975;48.046;7.804;2022-08-03T15:07:39;2.90;;;1.90;;
19653;SDS011;9975;48.046;7.804;2022-08-03T15:10:05;1.80;;;1.70;;
19653;SDS011;9975;48.046;7.804;2022-08-03T15:12:30;1.97;;;1.67;;
19653;SDS011;9975;48.046;7.804;2022-08-03T15:14:56;2.23;;;2.03;;
19653;SDS011;9975;48.046;7.804;2022-08-03T15:17:22;2.20;;;1.73;;
19653;SDS011;9975;48.046;7.804;2022-08-03T15:19:48;2.07;;;1.83;;
19653;SDS011;9975;48.046;7.804;2022-08-03T15:22:13;2.30;;;2.20;;
19653;SDS011;9975;48.046;7.804;2022-08-03T15:24:41;1.70;;;1.60;;
19653;SDS011;9975;48.046;7.804;2022-08-03T15:27:06;3.30;;;2.13;;
19653;SDS011;9975;48.046;7.804;2022-08-03T15:29:32;2.10;;;2.00;;
19653;SDS011;9975;48.046;7.804;2022-08-03T15:31:58;2.07;;;1.97;;
19653;SDS011;9975;48.046;7.804;2022-08-03T15:34:24;1.93;;;1.83;;
19653;SDS011;9975;48.046;7.804;2022-08-03T15:36:49;2.33;;;2.23;;
19653;SDS011;9975;48.046;7.804;2022-08-03T15:39:15;2.50;;;2.40;;
19653;SDS011;9975;48.046;7.804;2022-08-03T15:41:41;2.00;;;1.90;;
19653;SDS011;9975;48.046;7.804;2022-08-03T15:44:06;2.50;;;2.33;;
19653;SDS011;9975;48.046;7.804;2022-08-03T15:46:32;2.10;;;2.00;;
19653;SDS011;9975;48.046;7.804;2022-08-03T15:48:57;2.50;;;2.17;;
19653;SDS011;9975;48.046;7.804;2022-08-03T15:51:23;2.13;;;2.03;;
19653;SDS011;9975;48.046;7.804;2022-08-03T15:53:49;5.70;;;2.43;;
19653;SDS011;9975;48.046;7.804;2022-08-03T15:56:14;2.60;;;2.40;;
19653;SDS011;9975;48.046;7.804;2022-08-03T15:58:40;2.90;;;2.30;;
19653;SDS011;9975;48.046;7.804;2022-08-03T16:01:06;3.00;;;2.80;;
19653;SDS011;9975;48.046;7.804;2022-08-03T16:03:32;2.70;;;2.60;;
19653;SDS011;9975;48.046;7.804;2022-08-03T16:06:01;2.37;;;2.27;;
19653;SDS011;9975;48.046;7.804;2022-08-03T16:08:28;2.73;;;2.53;;
19653;SDS011;9975;48.046;7.804;2022-08-03T16:10:54;2.07;;;1.87;;
19653;SDS011;9975;48.046;7.804;2022-08-03T16:13:21;2.50;;;2.30;;
19653;SDS011;9975;48.046;7.804;2022-08-03T16:15:47;2.27;;;2.17;;
19653;SDS011;9975;48.046;7.804;2022-08-03T16:18:13;4.00;;;2.17;;
19653;SDS011;9975;48.046;7.804;2022-08-03T16:20:39;2.10;;;1.90;;
19653;SDS011;9975;48.046;7.804;2022-08-03T16:23:04;2.20;;;2.00;;
19653;SDS011;9975;48.046;7.804;2022-08-03T16:25:30;2.90;;;2.70;;
19653;SDS011;9975;48.046;7.804;2022-08-03T16:27:56;2.50;;;2.30;;
19653;SDS011;9975;48.046;7.804;2022-08-03T16:30:22;4.30;;;2.43;;
19653;SDS011;9975;48.046;7.804;2022-08-03T16:32:48;2.30;;;2.20;;
19653;SDS011;9975;48.046;7.804;2022-08-03T16:35:14;4.23;;;2.47;;
19653;SDS011;9975;48.046;7.804;2022-08-03T16:37:39;2.93;;;2.50;;
19653;SDS011;9975;48.046;7.804;2022-08-03T16:40:07;2.40;;;2.20;;
19653;SDS011;9975;48.046;7.804;2022-08-03T16:42:34;2.30;;;2.20;;
19653;SDS011;9975;48.046;7.804;2022-08-03T16:45:01;2.03;;;1.83;;
19653;SDS011;9975;48.046;7.804;2022-08-03T16:47:27;2.67;;;2.50;;
19653;SDS011;9975;48.046;7.804;2022-08-03T16:49:53;2.50;;;2.30;;
19653;SDS011;9975;48.046;7.804;2022-08-03T16:52:18;2.63;;;2.43;;
19653;SDS011;9975;48.046;7.804;2022-08-03T16:54:44;4.97;;;3.10;;
19653;SDS011;9975;48.046;7.804;2022-08-03T16:57:10;2.70;;;2.50;;
19653;SDS011;9975;48.046;7.804;2022-08-03T16:59:46;2.90;;;2.33;;
19653;SDS011;9975;48.046;7.804;2022-08-03T17:02:15;2.57;;;2.40;;
19653;SDS011;9975;48.046;7.804;2022-08-03T17:04:46;4.00;;;2.10;;
19653;SDS011;9975;48.046;7.804;2022-08-03T17:07:11;2.37;;;2.17;;
19653;SDS011;9975;48.046;7.804;2022-08-03T17:09:37;3.30;;;2.47;;
19653;SDS011;9975;48.046;7.804;2022-08-03T17:12:03;2.50;;;2.30;;
19653;SDS011;9975;48.046;7.804;2022-08-03T17:14:29;2.80;;;2.60;;
19653;SDS011;9975;48.046;7.804;2022-08-03T17:16:55;3.10;;;2.80;;
19653;SDS011;9975;48.046;7.804;2022-08-03T17:19:24;3.07;;;2.87;;
19653;SDS011;9975;48.046;7.804;2022-08-03T17:21:56;3.97;;;2.63;;
19653;SDS011;9975;48.046;7.804;2022-08-03T17:24:35;3.83;;;2.30;;
19653;SDS011;9975;48.046;7.804;2022-08-03T17:27:04;3.40;;;3.10;;
19653;SDS011;9975;48.046;7.804;2022-08-03T17:29:33;2.97;;;2.80;;
19653;SDS011;9975;48.046;7.804;2022-08-03T17:32:00;3.03;;;2.83;;
19653;SDS011;9975;48.046;7.804;2022-08-03T17:34:26;2.27;;;2.17;;
19653;SDS011;9975;48.046;7.804;2022-08-03T17:36:53;2.60;;;2.40;;